Time;durP1;ratioP1;P1;durP2;ratioP2;P2;SDS_P1;SDS_P2;PMS_P1;PMS_P2;Temp;Humidity;BMP_temperature;BMP_pressure;BME280_temperature;BME280_humidity;BME280_pressure;Samples;Min_cycle;Max_cycle;Signal;HPM_P1;HPM_P2
2021/07/24 00:00:26;;;;;;;571.70;353.90;;;15.80;99.90;;;;;;8296060;28;20045;-64
2021/07/24 00:04:26;;;;;;;570.47;349.70;;;15.90;99.90;;;;;;8295935;28;20033;-64
2021/07/24 00:08:27;;;;;;;574.10;355.08;;;16.00;99.90;;;;;;8296184;28;20022;-64
2021/07/24 00:12:27;;;;;;;578.38;357.67;;;15.80;99.90;;;;;;8295401;28;20030;-64
2021/07/24 00:16:28;;;;;;;568.88;346.73;;;15.70;99.90;;;;;;8295703;28;20017;-64
2021/07/24 00:20:28;;;;;;;573.22;353.52;;;15.60;99.90;;;;;;8295432;28;20057;-64
2021/07/24 00:24:29;;;;;;;569.72;348.40;;;15.90;99.90;;;;;;8295445;28;20544;-64
2021/07/24 00:28:29;;;;;;;573.78;352.63;;;15.80;99.90;;;;;;8295288;28;20032;-64
2021/07/24 00:32:30;;;;;;;575.78;355.95;;;15.90;99.90;;;;;;8294841;28;20036;-64
2021/07/24 00:36:30;;;;;;;576.10;355.98;;;15.80;99.90;;;;;;8293545;28;20072;-64
2021/07/24 00:40:37;;;;;;;575.15;354.55;;;15.70;99.90;;;;;;8294474;28;20583;-64
2021/07/24 00:44:38;;;;;;;574.05;357.70;;;15.50;99.90;;;;;;8293727;28;20091;-64
2021/07/24 00:48:41;;;;;;;573.30;351.10;;;15.60;99.90;;;;;;8294307;28;20370;-64
2021/07/24 00:52:43;;;;;;;573.15;353.00;;;15.80;99.90;;;;;;8294247;28;20021;-64
2021/07/24 00:56:44;;;;;;;575.63;354.88;;;15.60;99.90;;;;;;8294446;28;20038;-64
2021/07/24 01:00:44;;;;;;;574.55;350.83;;;15.40;99.90;;;;;;8293963;28;20517;-64
2021/07/24 01:04:45;;;;;;;576.58;354.30;;;15.60;99.90;;;;;;8279376;28;20560;-64
2021/07/24 01:08:48;;;;;;;574.45;352.17;;;15.50;99.90;;;;;;8294221;28;20033;-64
2021/07/24 01:12:48;;;;;;;578.65;353.98;;;15.50;99.90;;;;;;8294268;28;20022;-64
2021/07/24 01:16:49;;;;;;;574.03;350.00;;;15.60;99.90;;;;;;8285709;28;20088;-64
2021/07/24 01:20:55;;;;;;;578.33;353.13;;;15.50;99.90;;;;;;8291610;28;20042;-64
2021/07/24 01:24:55;;;;;;;581.80;356.02;;;15.30;99.90;;;;;;8292354;28;20401;-64
2021/07/24 01:28:56;;;;;;;583.83;358.38;;;15.10;99.90;;;;;;8293341;28;20026;-64
2021/07/24 01:32:58;;;;;;;572.65;340.52;;;15.00;99.90;;;;;;8293268;28;20033;-64
2021/07/24 01:36:58;;;;;;;575.50;349.08;;;15.00;99.90;;;;;;8292886;28;20018;-65
2021/07/24 01:40:59;;;;;;;574.38;352.92;;;15.00;99.90;;;;;;8291421;28;20034;-63
2021/07/24 01:44:59;;;;;;;576.58;352.38;;;15.00;99.90;;;;;;8292795;28;20500;-64
2021/07/24 01:53:03;;;;;;;572.97;352.08;;;15.00;99.90;;;;;;8292841;28;20480;-64
2021/07/24 01:57:08;;;;;;;576.47;350.10;;;15.00;99.90;;;;;;8292630;28;20030;-64
2021/07/24 02:01:11;;;;;;;573.38;348.83;;;15.00;99.90;;;;;;8292346;28;20025;-64
2021/07/24 02:05:38;;;;;;;571.55;348.23;;;15.00;99.90;;;;;;8280940;28;20022;-65
2021/07/24 02:09:39;;;;;;;575.65;345.48;;;15.00;99.90;;;;;;8292484;28;20033;-64
2021/07/24 02:13:39;;;;;;;574.55;346.17;;;14.90;99.90;;;;;;8292158;28;20022;-65
2021/07/24 02:17:40;;;;;;;570.63;338.17;;;15.00;99.90;;;;;;8292503;28;20109;-65
2021/07/24 02:21:41;;;;;;;569.83;337.63;;;15.10;99.90;;;;;;8290714;28;20030;-65
2021/07/24 02:25:42;;;;;;;571.58;337.65;;;15.00;99.90;;;;;;8291250;28;20374;-64
2021/07/24 02:29:42;;;;;;;566.88;331.55;;;15.00;99.90;;;;;;8292043;28;20030;-64
2021/07/24 02:33:43;;;;;;;569.70;334.65;;;15.00;99.90;;;;;;8291987;28;20029;-65
2021/07/24 02:37:43;;;;;;;568.22;337.88;;;15.00;99.90;;;;;;8291970;28;20048;-64
2021/07/24 02:41:44;;;;;;;568.03;332.50;;;14.90;99.90;;;;;;8291654;28;20068;-64
2021/07/24 02:45:44;;;;;;;563.10;329.58;;;15.00;99.90;;;;;;8291592;28;20025;-65
2021/07/24 02:49:45;;;;;;;567.28;332.45;;;14.80;99.90;;;;;;8291883;28;20584;-64
2021/07/24 02:53:46;;;;;;;569.55;339.23;;;14.70;99.90;;;;;;8291734;28;20037;-64
2021/07/24 02:57:46;;;;;;;566.78;335.02;;;14.60;99.90;;;;;;8291768;28;20084;-64
2021/07/24 03:01:47;;;;;;;566.47;333.45;;;14.60;99.90;;;;;;8277590;28;20025;-64
2021/07/24 03:05:48;;;;;;;567.20;333.20;;;14.40;99.90;;;;;;8297975;28;20113;-64
2021/07/24 03:09:48;;;;;;;563.42;328.70;;;14.40;99.90;;;;;;8296696;28;20026;-64
2021/07/24 03:13:49;;;;;;;567.47;327.00;;;14.30;99.90;;;;;;8297934;28;20580;-64
2021/07/24 03:17:49;;;;;;;561.47;325.70;;;14.40;99.90;;;;;;8297400;28;20029;-64
2021/07/24 03:21:50;;;;;;;564.60;328.88;;;14.60;99.90;;;;;;8296977;28;20041;-64
2021/07/24 03:25:50;;;;;;;564.95;331.58;;;14.40;99.90;;;;;;8281128;28;20064;-64
2021/07/24 03:29:51;;;;;;;567.67;334.70;;;14.50;99.90;;;;;;8297311;28;20038;-64
2021/07/24 03:33:52;;;;;;;564.55;332.25;;;14.50;99.90;;;;;;8291036;28;20023;-64
2021/07/24 03:37:52;;;;;;;561.20;327.90;;;14.40;99.90;;;;;;8246872;28;20034;-64
2021/07/24 03:41:53;;;;;;;555.42;319.48;;;14.50;99.90;;;;;;8264015;28;20520;-64
2021/07/24 03:45:53;;;;;;;561.95;320.45;;;14.60;99.90;;;;;;8282077;28;20045;-64
2021/07/24 03:49:54;;;;;;;564.33;325.70;;;14.60;99.90;;;;;;8278795;28;20188;-64
2021/07/24 03:53:54;;;;;;;559.30;323.38;;;14.70;99.90;;;;;;8295822;28;20041;-64
2021/07/24 03:57:56;;;;;;;559.60;318.05;;;15.00;99.90;;;;;;8292067;28;20447;-64
2021/07/24 04:01:58;;;;;;;555.83;319.85;;;15.30;99.90;;;;;;8265792;28;20023;-64
2021/07/24 04:05:59;;;;;;;559.30;324.73;;;15.10;99.90;;;;;;8286517;28;20064;-64
2021/07/24 04:10:00;;;;;;;558.53;324.73;;;15.00;99.90;;;;;;8287053;28;20034;-65
2021/07/24 04:14:02;;;;;;;556.88;327.65;;;15.10;99.90;;;;;;8270697;28;20030;-65
2021/07/24 04:18:04;;;;;;;561.30;335.15;;;15.30;99.90;;;;;;8256201;28;20109;-65
2021/07/24 04:22:05;;;;;;;561.45;338.77;;;15.40;99.90;;;;;;8283759;28;20443;-64
2021/07/24 04:26:05;;;;;;;555.90;338.60;;;15.60;99.90;;;;;;8295503;28;20152;-64
2021/07/24 04:30:06;;;;;;;564.15;341.83;;;15.90;99.90;;;;;;8293509;28;20504;-64
2021/07/24 04:34:07;;;;;;;564.83;341.77;;;15.70;99.90;;;;;;8287252;28;20552;-64
2021/07/24 04:38:07;;;;;;;565.22;339.73;;;15.60;99.90;;;;;;8277685;28;20077;-64
2021/07/24 04:42:08;;;;;;;562.83;342.23;;;15.80;99.90;;;;;;8278463;28;20037;-64
2021/07/24 04:46:08;;;;;;;557.00;338.48;;;16.00;99.90;;;;;;8276620;28;20412;-64
2021/07/24 04:50:10;;;;;;;567.97;349.20;;;16.00;99.90;;;;;;8292717;28;20643;-64
2021/07/24 04:54:10;;;;;;;566.50;346.33;;;16.00;99.90;;;;;;8293072;28;20137;-64
2021/07/24 04:58:11;;;;;;;565.72;347.38;;;16.00;99.90;;;;;;8276178;28;20061;-68
2021/07/24 05:02:18;;;;;;;565.70;348.88;;;16.00;99.90;;;;;;8268380;28;20095;-72
2021/07/24 05:06:19;;;;;;;562.40;345.35;;;16.20;99.90;;;;;;8295996;28;20638;-73
2021/07/24 05:10:19;;;;;;;528.22;346.35;;;16.10;99.90;;;;;;8289257;28;20023;-74
2021/07/24 05:14:20;;;;;;;565.65;351.45;;;16.00;99.90;;;;;;8267101;28;20636;-75
2021/07/24 05:18:20;;;;;;;561.95;349.05;;;16.10;99.90;;;;;;8269775;28;20038;-75
2021/07/24 05:22:21;;;;;;;564.00;356.75;;;16.50;99.90;;;;;;8248300;28;20121;-73
2021/07/24 05:26:21;;;;;;;564.88;360.13;;;16.60;99.90;;;;;;8288901;28;20025;-74
2021/07/24 05:30:22;;;;;;;574.75;372.83;;;16.80;99.90;;;;;;8269882;28;20042;-76
2021/07/24 05:34:23;;;;;;;570.17;374.83;;;17.10;99.90;;;;;;8275983;28;20036;-75
2021/07/24 05:38:23;;;;;;;567.97;373.90;;;17.50;99.90;;;;;;8295115;28;20052;-73
2021/07/24 05:42:24;;;;;;;573.75;381.00;;;17.90;99.90;;;;;;8259362;28;20038;-73
2021/07/24 05:46:24;;;;;;;573.25;382.17;;;18.40;99.90;;;;;;8288180;28;20080;-73
2021/07/24 05:50:25;;;;;;;575.03;399.52;;;18.60;99.90;;;;;;8266585;28;20044;-75
2021/07/24 05:54:26;;;;;;;581.42;408.67;;;18.50;99.90;;;;;;8281765;28;20065;-75
2021/07/24 05:58:27;;;;;;;578.28;407.48;;;18.70;99.90;;;;;;8269603;28;20037;-76
2021/07/24 06:02:27;;;;;;;579.30;405.70;;;18.40;99.90;;;;;;8274721;28;20029;-76
2021/07/24 06:06:28;;;;;;;582.17;407.15;;;18.20;99.90;;;;;;8287444;28;20497;-64
2021/07/24 06:10:28;;;;;;;580.80;404.42;;;17.90;99.90;;;;;;8286346;28;20025;-64
2021/07/24 06:14:32;;;;;;;580.25;400.80;;;17.90;99.90;;;;;;8263497;28;20018;-64
2021/07/24 06:18:32;;;;;;;571.67;391.33;;;17.60;99.90;;;;;;8275050;28;20026;-64
2021/07/24 06:22:33;;;;;;;577.72;389.60;;;17.70;99.90;;;;;;8273945;28;20032;-64
2021/07/24 06:26:38;;;;;;;574.33;385.85;;;17.50;99.90;;;;;;8262983;28;20030;-64
2021/07/24 06:30:39;;;;;;;572.40;386.73;;;17.60;99.90;;;;;;8259744;28;20031;-65
2021/07/24 06:34:39;;;;;;;573.20;393.73;;;17.90;99.90;;;;;;8278930;28;20029;-65
2021/07/24 06:38:40;;;;;;;574.45;401.98;;;18.20;99.90;;;;;;8298889;28;20061;-64
2021/07/24 06:42:40;;;;;;;578.33;407.02;;;18.30;99.90;;;;;;8297933;28;20038;-64
2021/07/24 06:46:41;;;;;;;572.63;391.50;;;18.40;99.90;;;;;;8298500;28;20033;-64
2021/07/24 06:50:41;;;;;;;575.28;392.20;;;18.50;99.90;;;;;;8298329;28;20574;-64
2021/07/24 06:54:42;;;;;;;570.72;387.60;;;18.30;99.90;;;;;;8298424;28;20026;-64
2021/07/24 06:58:43;;;;;;;576.83;389.52;;;18.20;99.90;;;;;;8283931;28;20092;-64
2021/07/24 07:02:43;;;;;;;570.78;385.50;;;18.00;99.90;;;;;;8287506;28;20053;-64
2021/07/24 07:06:44;;;;;;;575.22;386.23;;;18.00;99.90;;;;;;8283314;28;20034;-64
2021/07/24 07:10:45;;;;;;;572.72;394.65;;;18.40;99.90;;;;;;8276386;28;20026;-65
2021/07/24 07:14:45;;;;;;;569.35;387.35;;;18.50;99.90;;;;;;8294970;28;20029;-64
2021/07/24 07:18:46;;;;;;;570.30;394.10;;;18.40;99.90;;;;;;8269892;28;20022;-64
2021/07/24 07:22:46;;;;;;;568.58;387.50;;;18.80;99.90;;;;;;8294041;28;20104;-64
2021/07/24 07:26:47;;;;;;;568.92;386.10;;;18.50;99.90;;;;;;8290858;28;20028;-64
2021/07/24 07:30:48;;;;;;;574.53;389.90;;;18.20;99.90;;;;;;8247565;28;20031;-64
2021/07/24 07:34:49;;;;;;;575.15;396.35;;;18.10;99.90;;;;;;8296784;28;20072;-64
2021/07/24 07:38:50;;;;;;;575.13;398.95;;;18.40;99.90;;;;;;8296887;28;20080;-64
2021/07/24 07:42:51;;;;;;;576.97;407.65;;;18.90;99.90;;;;;;8296322;28;20031;-63
2021/07/24 07:46:51;;;;;;;583.88;432.50;;;19.40;99.90;;;;;;8295733;28;20440;-63
2021/07/24 07:50:52;;;;;;;586.10;449.15;;;20.00;99.90;;;;;;8295887;28;20026;-63
2021/07/24 07:54:53;;;;;;;591.00;459.73;;;20.50;99.90;;;;;;8296477;28;20057;-63
2021/07/24 07:58:54;;;;;;;590.97;465.05;;;20.60;99.90;;;;;;8262875;28;20123;-63
2021/07/24 08:02:55;;;;;;;595.65;471.75;;;20.30;99.90;;;;;;8278374;28;20034;-63
2021/07/24 08:06:55;;;;;;;585.60;451.02;;;19.90;99.90;;;;;;8296030;28;20685;-63
2021/07/24 08:10:56;;;;;;;580.75;438.70;;;19.60;99.90;;;;;;8294348;28;20033;-63
2021/07/24 08:14:57;;;;;;;584.45;438.65;;;19.30;99.90;;;;;;8266366;28;20029;-63
2021/07/24 08:18:57;;;;;;;586.17;433.70;;;19.20;99.90;;;;;;8278107;28;20041;-64
2021/07/24 08:22:58;;;;;;;589.13;431.02;;;19.10;99.90;;;;;;8284203;28;20520;-62
2021/07/24 08:26:58;;;;;;;578.30;419.60;;;19.00;99.90;;;;;;8281659;28;20034;-63
2021/07/24 08:31:00;;;;;;;581.08;419.27;;;18.80;99.90;;;;;;8293928;28;20034;-63
2021/07/24 08:35:00;;;;;;;581.58;417.75;;;18.60;99.90;;;;;;8279090;28;20335;-63
2021/07/24 08:39:02;;;;;;;578.00;410.65;;;18.40;99.90;;;;;;8261782;28;20077;-63
2021/07/24 08:43:06;;;;;;;578.78;415.23;;;18.40;99.90;;;;;;8245103;28;20032;-63
2021/07/24 08:47:07;;;;;;;576.05;419.80;;;18.40;99.90;;;;;;8294872;28;20377;-63
2021/07/24 08:51:14;;;;;;;571.15;405.67;;;18.50;99.90;;;;;;8263420;28;20021;-63
2021/07/24 08:55:15;;;;;;;573.70;407.63;;;18.70;99.90;;;;;;8291195;28;20022;-62
2021/07/24 08:59:20;;;;;;;576.08;408.75;;;19.00;99.90;;;;;;8273144;28;20049;-62
2021/07/24 09:03:24;;;;;;;575.60;416.30;;;19.40;99.90;;;;;;8293445;28;20033;-62
2021/07/24 09:07:30;;;;;;;577.67;420.55;;;19.60;99.90;;;;;;8268257;28;20034;-64
2021/07/24 09:11:31;;;;;;;578.97;424.23;;;19.80;99.90;;;;;;8276565;28;20289;-63
2021/07/24 09:15:32;;;;;;;580.45;429.05;;;20.10;99.90;;;;;;8289455;28;20097;-63
2021/07/24 09:19:32;;;;;;;581.17;453.75;;;20.40;99.90;;;;;;8277354;28;20029;-63
2021/07/24 09:23:39;;;;;;;583.85;469.42;;;21.20;99.90;;;;;;8255771;28;20030;-64
2021/07/24 09:27:48;;;;;;;587.88;485.05;;;21.50;99.90;;;;;;8292840;28;20516;-63
2021/07/24 09:31:49;;;;;;;590.90;503.52;;;22.10;99.90;;;;;;8292380;28;20033;-64
2021/07/24 09:35:54;;;;;;;630.33;525.42;;;22.70;99.90;;;;;;8280691;28;20531;-64
2021/07/24 09:40:14;;;;;;;587.25;514.78;;;23.10;99.90;;;;;;8286884;28;20034;-64
2021/07/24 09:44:30;;;;;;;602.65;536.58;;;23.70;99.90;;;;;;8285553;28;20072;-64
2021/07/24 09:48:31;;;;;;;628.47;561.83;;;23.90;99.90;;;;;;8282068;28;20022;-64
2021/07/24 09:52:44;;;;;;;656.13;588.65;;;24.40;99.90;;;;;;8288915;28;20037;-64
2021/07/24 09:56:45;;;;;;;666.22;598.72;;;25.40;99.90;;;;;;8265810;28;20037;-64
2021/07/24 10:00:46;;;;;;;688.17;619.80;;;25.80;99.90;;;;;;8278909;28;20026;-64
2021/07/24 10:04:52;;;;;;;700.22;632.03;;;26.20;99.90;;;;;;8257465;28;20109;-64
2021/07/24 10:08:53;;;;;;;707.55;639.13;;;26.40;99.90;;;;;;8269430;28;20380;-64
2021/07/24 10:12:54;;;;;;;649.40;540.55;;;26.60;99.90;;;;;;8269565;28;20501;-65
2021/07/24 10:16:59;;;;;;;721.17;652.95;;;26.90;99.90;;;;;;8281621;28;20112;-65
2021/07/24 10:20:59;;;;;;;731.05;662.72;;;27.60;99.90;;;;;;8278553;28;20493;-64
2021/07/24 10:25:00;;;;;;;746.00;677.33;;;27.80;99.90;;;;;;8274700;28;20038;-64
2021/07/24 10:29:05;;;;;;;770.65;701.15;;;28.20;99.90;;;;;;8281839;28;20033;-65
2021/07/24 10:33:07;;;;;;;793.67;723.40;;;28.90;99.90;;;;;;8291594;28;20018;-64
2021/07/24 10:37:44;;;;;;;787.10;717.13;;;29.20;99.90;;;;;;8291862;28;20026;-64
2021/07/24 10:42:05;;;;;;;801.22;730.65;;;29.10;99.90;;;;;;8271114;28;20041;-64
2021/07/24 10:46:05;;;;;;;804.50;734.03;;;29.50;99.90;;;;;;8274683;28;20046;-64
2021/07/24 10:50:06;;;;;;;811.33;740.75;;;29.60;99.90;;;;;;8279255;28;20034;-64
2021/07/24 10:54:09;;;;;;;818.72;748.00;;;29.90;99.90;;;;;;8269450;28;20032;-65
2021/07/24 10:58:10;;;;;;;830.30;759.05;;;30.30;99.90;;;;;;8272439;28;20142;-65
2021/07/24 11:02:13;;;;;;;838.35;767.28;;;30.60;99.90;;;;;;8282894;28;20707;-64
2021/07/24 11:06:20;;;;;;;865.53;792.90;;;30.50;99.90;;;;;;8284931;28;20026;-63
2021/07/24 11:10:21;;;;;;;867.42;794.60;;;30.70;99.90;;;;;;8276081;28;20768;-63
2021/07/24 11:14:37;;;;;;;871.85;799.03;;;30.60;99.90;;;;;;8258326;28;20127;-64
2021/07/24 11:18:37;;;;;;;868.58;796.25;;;31.00;99.90;;;;;;8282754;28;20101;-63
2021/07/24 11:23:01;;;;;;;880.85;807.83;;;30.80;99.90;;;;;;8287228;28;20026;-63
2021/07/24 11:27:02;;;;;;;883.95;810.63;;;30.80;99.90;;;;;;8287733;28;20029;-64
2021/07/24 11:31:02;;;;;;;873.05;800.28;;;30.40;99.90;;;;;;8272404;28;20038;-63
2021/07/24 11:35:06;;;;;;;869.75;797.10;;;30.00;99.10;;;;;;8272707;28;20104;-63
2021/07/24 11:39:07;;;;;;;835.00;763.50;;;29.70;99.90;;;;;;8297463;28;20054;-62
2021/07/24 11:43:08;;;;;;;826.45;755.00;;;29.00;99.90;;;;;;8296970;28;20038;-63
2021/07/24 11:47:08;;;;;;;809.50;738.38;;;28.40;99.90;;;;;;8297083;28;20037;-63
2021/07/24 11:51:10;;;;;;;795.60;724.33;;;27.40;99.90;;;;;;8290157;28;20508;-63
2021/07/24 11:55:11;;;;;;;773.38;702.47;;;26.90;99.90;;;;;;8296998;28;20033;-62
2021/07/24 11:59:15;;;;;;;740.63;670.85;;;26.30;99.90;;;;;;8295206;28;20562;-63
2021/07/24 12:03:24;;;;;;;736.92;667.33;;;25.50;99.90;;;;;;8291853;28;20018;-63
2021/07/24 12:07:25;;;;;;;721.78;653.13;;;25.30;99.90;;;;;;8272173;28;20022;-63
2021/07/24 12:11:26;;;;;;;728.05;658.58;;;25.20;99.90;;;;;;8291693;28;20045;-63
2021/07/24 12:15:58;;;;;;;729.55;660.28;;;25.70;99.90;;;;;;8289032;28;20034;-63
2021/07/24 12:20:11;;;;;;;763.30;693.22;;;26.40;99.90;;;;;;8276360;28;20046;-63
2021/07/24 12:24:23;;;;;;;780.45;710.17;;;27.70;99.90;;;;;;8295798;28;20165;-63
2021/07/24 12:28:29;;;;;;;785.88;715.42;;;28.30;99.90;;;;;;8295623;28;20037;-63
2021/07/24 12:32:40;;;;;;;790.75;720.67;;;28.20;99.90;;;;;;8295025;28;20026;-63
2021/07/24 12:36:59;;;;;;;787.05;717.10;;;27.80;99.90;;;;;;8277350;28;20197;-63
2021/07/24 12:41:07;;;;;;;763.25;694.67;;;27.50;99.90;;;;;;8278420;28;20029;-63
2021/07/24 12:45:25;;;;;;;756.90;688.40;;;27.60;99.90;;;;;;8260814;28;20022;-63
2021/07/24 12:49:36;;;;;;;754.28;686.08;;;27.60;99.90;;;;;;8276301;28;20037;-63
2021/07/24 12:53:38;;;;;;;751.38;683.30;;;27.40;99.90;;;;;;8281689;28;20068;-63
2021/07/24 12:57:38;;;;;;;654.03;590.92;;;27.80;99.90;;;;;;8275348;28;20740;-63
2021/07/24 13:01:49;;;;;;;627.22;565.92;;;29.40;99.90;;;;;;8275890;28;20058;-63
2021/07/24 13:05:50;;;;;;;829.30;758.17;;;30.90;99.90;;;;;;8278602;28;20677;-63
2021/07/24 13:09:51;;;;;;;844.53;773.15;;;32.20;99.90;;;;;;8275116;28;20056;-63
2021/07/24 13:13:51;;;;;;;841.15;770.17;;;32.60;98.10;;;;;;8279577;28;20429;-63
2021/07/24 13:17:52;;;;;;;865.40;793.13;;;32.30;95.20;;;;;;8277098;28;20053;-64
2021/07/24 13:21:52;;;;;;;900.30;827.42;;;34.10;92.10;;;;;;8278104;28;20439;-63
2021/07/24 13:26:08;;;;;;;912.30;839.47;;;35.90;83.20;;;;;;8289942;28;20030;-63
2021/07/24 13:30:09;;;;;;;890.40;818.97;;;35.90;76.70;;;;;;8280555;28;20034;-63
2021/07/24 13:34:10;;;;;;;873.35;802.95;;;34.20;76.30;;;;;;8263992;28;20069;-63
2021/07/24 13:38:12;;;;;;;851.42;781.78;;;32.50;80.40;;;;;;8272479;28;20026;-64
2021/07/24 13:42:13;;;;;;;814.20;745.55;;;31.10;85.30;;;;;;8269280;28;20036;-64
2021/07/24 13:46:13;;;;;;;814.63;745.75;;;29.60;91.40;;;;;;8274257;28;20110;-64
2021/07/24 13:50:14;;;;;;;813.03;744.17;;;30.00;92.30;;;;;;8279980;28;20037;-64
2021/07/24 13:54:14;;;;;;;832.33;762.83;;;30.30;90.40;;;;;;8278048;28;20027;-63
2021/07/24 13:58:15;;;;;;;807.63;738.28;;;29.90;91.70;;;;;;8277514;28;20489;-64
2021/07/24 14:02:16;;;;;;;789.33;720.38;;;28.90;92.30;;;;;;8276125;28;20058;-64
2021/07/24 14:06:16;;;;;;;784.53;715.15;;;27.80;94.50;;;;;;8278116;28;20026;-65
2021/07/24 14:10:17;;;;;;;771.05;701.85;;;27.10;97.70;;;;;;8277342;28;20085;-65
2021/07/24 14:14:18;;;;;;;754.42;685.15;;;26.50;99.90;;;;;;8261222;28;20460;-65
2021/07/24 14:18:18;;;;;;;718.45;650.72;;;26.00;99.90;;;;;;8274747;28;20034;-65
2021/07/24 14:22:19;;;;;;;709.50;641.95;;;25.60;99.90;;;;;;8273393;28;20563;-65
2021/07/24 14:26:20;;;;;;;711.70;643.63;;;25.50;99.90;;;;;;8286362;28;20040;-65
2021/07/24 14:30:21;;;;;;;720.42;651.85;;;25.40;99.90;;;;;;8275552;28;20407;-65
2021/07/24 14:34:21;;;;;;;700.53;632.20;;;25.30;99.90;;;;;;8284347;28;20034;-64
2021/07/24 14:38:22;;;;;;;694.67;626.65;;;24.60;99.90;;;;;;8283583;28;20034;-65
2021/07/24 14:42:24;;;;;;;691.42;623.78;;;24.40;99.90;;;;;;8280877;28;20037;-65
2021/07/24 14:46:25;;;;;;;701.10;633.30;;;24.60;99.90;;;;;;8281058;28;20030;-68
2021/07/24 14:50:26;;;;;;;718.67;650.22;;;25.00;99.90;;;;;;8287702;28;20030;-65
2021/07/24 14:54:26;;;;;;;722.40;653.65;;;25.10;99.90;;;;;;8283734;28;20030;-65
2021/07/24 14:58:27;;;;;;;716.67;648.60;;;24.90;99.90;;;;;;8273086;28;20049;-64
2021/07/24 15:02:27;;;;;;;696.58;628.75;;;24.60;99.90;;;;;;8272988;28;20053;-64
2021/07/24 15:06:28;;;;;;;696.33;628.55;;;24.20;99.90;;;;;;8268362;28;20030;-64
2021/07/24 15:10:28;;;;;;;651.50;584.25;;;24.00;99.90;;;;;;8279263;28;20037;-65
2021/07/24 15:14:29;;;;;;;654.30;586.42;;;23.10;99.90;;;;;;8276127;28;20492;-66
2021/07/24 15:18:30;;;;;;;644.72;577.22;;;22.40;99.90;;;;;;8288991;28;20052;-65
2021/07/24 15:22:30;;;;;;;619.88;553.78;;;22.30;99.90;;;;;;8282828;28;20392;-65
2021/07/24 15:26:31;;;;;;;610.55;544.55;;;22.20;99.90;;;;;;8281214;28;20048;-65
2021/07/24 15:30:32;;;;;;;599.08;533.00;;;21.90;99.90;;;;;;8262706;28;20030;-63
2021/07/24 15:34:32;;;;;;;608.60;542.13;;;21.60;99.90;;;;;;8284182;28;20026;-65
2021/07/24 15:38:35;;;;;;;588.65;504.60;;;21.40;99.90;;;;;;8290552;28;20077;-65
2021/07/24 15:42:35;;;;;;;582.08;484.38;;;21.10;99.90;;;;;;8282354;28;20033;-64
2021/07/24 15:46:36;;;;;;;584.55;485.60;;;20.60;99.90;;;;;;8266297;28;20038;-64
2021/07/24 15:50:37;;;;;;;586.03;484.80;;;20.40;99.90;;;;;;8273047;28;20057;-65
2021/07/24 15:54:37;;;;;;;572.47;454.80;;;20.40;99.90;;;;;;8279740;28;20084;-65
2021/07/24 16:03:36;;;;;;;595.53;498.70;;;20.70;99.90;;;;;;8278299;28;20045;-65
2021/07/24 16:07:38;;;;;;;599.47;503.67;;;20.50;99.90;;;;;;8290503;28;20627;-65
2021/07/24 16:11:38;;;;;;;605.15;507.20;;;20.20;99.90;;;;;;8296599;28;20037;-64
2021/07/24 16:15:40;;;;;;;598.53;495.55;;;19.90;99.90;;;;;;8296316;28;20094;-64
2021/07/24 16:19:40;;;;;;;596.17;487.40;;;19.90;99.90;;;;;;8278602;28;20507;-64
2021/07/24 16:23:41;;;;;;;598.22;491.27;;;19.90;99.90;;;;;;8295762;28;20034;-64
2021/07/24 16:27:41;;;;;;;599.38;496.67;;;19.90;99.90;;;;;;8295832;28;20030;-64
2021/07/24 16:31:43;;;;;;;597.20;489.58;;;19.90;99.90;;;;;;8266561;28;20065;-64
2021/07/24 16:35:44;;;;;;;595.17;485.52;;;20.00;99.90;;;;;;8281977;28;20112;-64
2021/07/24 16:39:47;;;;;;;594.83;477.23;;;19.80;99.90;;;;;;8286591;28;20519;-64
2021/07/24 16:43:47;;;;;;;551.63;377.20;;;19.70;99.90;;;;;;8274155;28;20030;-62
2021/07/24 16:47:48;;;;;;;570.90;435.25;;;19.70;99.90;;;;;;8279457;28;20034;-64
2021/07/24 16:51:49;;;;;;;595.05;481.13;;;19.70;99.90;;;;;;8270538;28;20105;-63
2021/07/24 16:55:49;;;;;;;590.80;462.52;;;19.60;99.90;;;;;;8278425;28;20027;-65
2021/07/24 16:59:50;;;;;;;576.28;422.90;;;19.40;99.90;;;;;;8277322;28;20554;-64
2021/07/24 17:03:51;;;;;;;573.65;419.80;;;19.30;99.90;;;;;;8259208;28;20018;-63
2021/07/24 17:07:51;;;;;;;579.00;429.48;;;19.10;99.90;;;;;;8290404;28;20135;-63
2021/07/24 17:11:52;;;;;;;540.45;359.77;;;19.00;99.90;;;;;;8290436;28;20044;-63
2021/07/24 17:15:52;;;;;;;513.35;337.05;;;18.90;99.90;;;;;;8277158;28;20084;-63
2021/07/24 17:19:53;;;;;;;502.67;335.58;;;18.80;99.90;;;;;;8275672;28;20113;-64
2021/07/24 17:23:53;;;;;;;498.70;325.40;;;18.90;99.90;;;;;;8272043;28;20034;-63
2021/07/24 17:27:54;;;;;;;577.58;412.65;;;18.80;99.90;;;;;;8252513;28;20142;-63
2021/07/24 17:31:56;;;;;;;587.97;436.55;;;18.70;99.90;;;;;;8272672;28;20035;-63
2021/07/24 17:35:57;;;;;;;575.40;401.65;;;18.60;99.90;;;;;;8274534;28;20073;-64
2021/07/24 17:39:57;;;;;;;572.28;402.73;;;18.50;99.90;;;;;;8272867;28;20034;-64
2021/07/24 17:43:58;;;;;;;516.70;341.67;;;18.50;99.90;;;;;;8266996;28;20038;-63
2021/07/24 17:47:58;;;;;;;575.90;406.00;;;18.50;99.90;;;;;;8271931;28;20037;-64
2021/07/24 17:51:59;;;;;;;512.17;335.98;;;18.50;99.90;;;;;;8271450;28;20038;-63
2021/07/24 17:56:00;;;;;;;576.53;412.35;;;18.50;99.90;;;;;;8273018;28;20034;-64
2021/07/24 18:00:01;;;;;;;579.80;419.45;;;18.60;99.90;;;;;;8276523;28;20042;-65
2021/07/24 18:04:02;;;;;;;507.98;336.30;;;18.50;99.90;;;;;;8283142;28;20188;-64
2021/07/24 18:08:04;;;;;;;506.23;332.40;;;18.50;99.90;;;;;;8287151;28;20130;-64
2021/07/24 18:12:05;;;;;;;501.77;329.70;;;18.40;99.90;;;;;;8275902;28;20026;-64
2021/07/24 18:16:10;;;;;;;506.30;332.80;;;18.30;99.90;;;;;;8263814;28;20034;-64
2021/07/24 18:20:11;;;;;;;579.35;440.00;;;18.30;99.90;;;;;;8261919;28;20121;-64
2021/07/24 18:24:11;;;;;;;446.45;413.10;;;18.30;99.90;;;;;;8282264;28;20037;-63
2021/07/24 18:28:12;;;;;;;518.97;474.92;;;18.20;99.90;;;;;;8269649;28;20041;-64
2021/07/24 18:32:13;;;;;;;569.33;485.80;;;18.30;99.90;;;;;;8275689;28;20112;-64
2021/07/24 18:36:13;;;;;;;590.22;475.33;;;18.30;99.90;;;;;;8264391;28;20029;-64
2021/07/24 18:40:15;;;;;;;608.15;465.23;;;18.40;99.90;;;;;;8272139;28;20026;-64
2021/07/24 18:44:16;;;;;;;603.67;454.10;;;18.40;99.90;;;;;;8251041;28;20030;-64
2021/07/24 18:48:16;;;;;;;596.30;447.38;;;18.30;99.90;;;;;;8277046;28;20626;-64
2021/07/24 18:52:17;;;;;;;597.92;459.80;;;18.10;99.90;;;;;;8274407;28;20097;-64
2021/07/24 18:56:17;;;;;;;601.30;445.58;;;18.10;99.90;;;;;;8249215;28;20086;-64
2021/07/24 19:00:18;;;;;;;601.30;446.13;;;18.10;99.90;;;;;;8261759;28;20527;-64
2021/07/24 19:04:19;;;;;;;602.22;468.02;;;18.00;99.90;;;;;;8254762;28;20045;-69
2021/07/24 19:08:20;;;;;;;606.20;457.15;;;18.00;99.90;;;;;;8272867;28;20540;-70
2021/07/24 19:12:20;;;;;;;598.33;434.27;;;17.80;99.90;;;;;;8279662;28;20431;-70
2021/07/24 19:16:22;;;;;;;595.30;424.60;;;17.90;99.90;;;;;;8278697;28;20520;-72
2021/07/24 19:20:23;;;;;;;607.88;449.25;;;17.70;99.90;;;;;;8281254;28;20030;-71
2021/07/24 19:24:24;;;;;;;601.05;438.05;;;17.40;99.90;;;;;;8278062;28;20026;-64
2021/07/24 19:28:24;;;;;;;607.75;442.30;;;17.40;99.90;;;;;;8278866;28;20057;-64
2021/07/24 19:32:25;;;;;;;601.00;431.98;;;17.40;99.90;;;;;;8273281;28;20033;-64
2021/07/24 19:36:28;;;;;;;546.28;349.83;;;17.30;99.90;;;;;;8288066;28;20033;-64
2021/07/24 19:40:28;;;;;;;591.90;412.05;;;17.20;99.90;;;;;;8283444;28;20472;-64
2021/07/24 19:44:31;;;;;;;586.92;411.27;;;17.00;99.90;;;;;;8282838;28;20115;-64
2021/07/24 19:48:31;;;;;;;566.30;379.10;;;17.00;99.90;;;;;;8282456;28;20022;-64
2021/07/24 19:52:34;;;;;;;593.90;422.30;;;17.10;99.90;;;;;;8278411;28;20049;-64
2021/07/24 19:56:34;;;;;;;590.05;413.63;;;17.20;99.90;;;;;;8278807;28;20030;-64
2021/07/24 20:00:35;;;;;;;587.33;406.15;;;17.20;99.90;;;;;;8281718;28;20065;-64
2021/07/24 20:04:36;;;;;;;582.60;395.42;;;17.00;99.90;;;;;;8277798;28;20373;-64